Time;durP1;ratioP1;P1;durP2;ratioP2;P2;SDS_P1;SDS_P2;PMS_P1;PMS_P2;Temp;Humidity;BMP_temperature;BMP_pressure;BME280_temperature;BME280_humidity;BME280_pressure;Samples;Min_cycle;Max_cycle;Signal;HPM_P1;HPM_P2
2021/09/14 00:01:43;;;;;;;1.05;0.63;;;18.40;68.70;;;;;;5098409;28;20036;-73
2021/09/14 00:04:09;;;;;;;2.55;0.93;;;18.30;68.50;;;;;;5080152;28;20036;-73
2021/09/14 00:06:39;;;;;;;1.23;0.60;;;18.40;68.60;;;;;;5099014;28;20075;-74
2021/09/14 00:09:06;;;;;;;3.35;0.90;;;18.30;68.70;;;;;;5098542;28;20355;-73
2021/09/14 00:11:33;;;;;;;1.52;0.75;;;18.30;68.70;;;;;;5080431;28;20044;-73
2021/09/14 00:13:59;;;;;;;3.47;1.10;;;18.30;68.90;;;;;;5098414;28;20075;-74
2021/09/14 00:16:25;;;;;;;2.40;0.93;;;18.30;68.80;;;;;;5098686;28;20040;-74
2021/09/14 00:18:51;;;;;;;2.55;1.20;;;18.20;68.80;;;;;;5080578;28;20040;-72
2021/09/14 00:21:17;;;;;;;2.60;0.90;;;18.20;68.60;;;;;;5098270;28;20416;-74
2021/09/14 00:23:43;;;;;;;2.28;1.10;;;18.20;68.80;;;;;;5098038;28;20109;-74
2021/09/14 00:26:09;;;;;;;1.98;1.13;;;18.20;68.80;;;;;;5098146;28;20044;-74
2021/09/14 00:28:34;;;;;;;2.53;1.10;;;18.20;68.80;;;;;;5080795;28;20048;-73
2021/09/14 00:31:00;;;;;;;1.48;1.00;;;18.30;69.00;;;;;;5097726;28;20040;-74
2021/09/14 00:33:26;;;;;;;2.70;0.93;;;18.20;68.80;;;;;;5097925;28;20036;-73
2021/09/14 00:35:52;;;;;;;1.90;1.10;;;18.20;69.00;;;;;;5079426;28;20132;-73
2021/09/14 00:38:17;;;;;;;1.85;0.85;;;18.20;68.80;;;;;;5097633;28;20052;-74
2021/09/14 00:40:43;;;;;;;2.55;0.93;;;18.30;68.90;;;;;;5097605;28;20082;-73
2021/09/14 00:43:09;;;;;;;1.67;0.63;;;18.30;69.00;;;;;;5079877;28;20127;-74
2021/09/14 00:45:34;;;;;;;3.10;0.93;;;18.30;69.50;;;;;;5079662;28;20487;-72
2021/09/14 00:48:01;;;;;;;2.50;1.00;;;18.30;68.90;;;;;;5097291;28;20040;-73
2021/09/14 00:50:27;;;;;;;2.25;1.27;;;18.20;68.80;;;;;;5097838;28;20040;-73
2021/09/14 00:52:53;;;;;;;2.85;0.77;;;18.20;68.80;;;;;;5097854;28;20050;-73
2021/09/14 00:55:19;;;;;;;3.35;0.95;;;18.30;68.90;;;;;;5097855;28;20040;-73
2021/09/14 00:57:45;;;;;;;3.78;1.00;;;18.20;68.90;;;;;;5096640;28;20097;-73
2021/09/14 01:00:11;;;;;;;1.55;0.82;;;18.20;69.00;;;;;;5097004;28;20039;-74
2021/09/14 01:02:37;;;;;;;2.15;0.65;;;18.20;69.00;;;;;;5097302;28;20090;-74
2021/09/14 01:05:03;;;;;;;2.40;1.38;;;18.20;69.00;;;;;;5079609;28;20083;-73
2021/09/14 01:07:31;;;;;;;1.60;0.80;;;18.20;68.70;;;;;;5097310;28;20050;-75
2021/09/14 01:09:57;;;;;;;2.70;1.15;;;18.20;68.90;;;;;;5097272;28;20105;-73
2021/09/14 01:12:23;;;;;;;2.30;0.90;;;18.20;68.90;;;;;;5096820;28;20335;-72
2021/09/14 01:14:53;;;;;;;1.75;0.90;;;18.10;68.60;;;;;;5096901;28;20040;-73
2021/09/14 01:17:19;;;;;;;2.13;0.93;;;18.10;68.50;;;;;;5079395;28;20500;-73
2021/09/14 01:19:45;;;;;;;3.72;1.10;;;18.10;68.70;;;;;;5097055;28;20035;-74
2021/09/14 01:22:11;;;;;;;2.55;1.08;;;18.10;68.80;;;;;;5096733;28;20048;-73
2021/09/14 01:24:36;;;;;;;2.67;1.05;;;18.10;68.80;;;;;;5096698;28;20115;-74
2021/09/14 01:27:02;;;;;;;2.45;0.77;;;18.10;68.80;;;;;;5097139;28;20040;-73
2021/09/14 01:32:12;;;;;;;3.53;0.88;;;18.10;68.90;;;;;;5096608;28;20047;-73
2021/09/14 01:34:38;;;;;;;2.05;1.00;;;18.10;68.70;;;;;;5096393;28;20051;-74
2021/09/14 01:37:03;;;;;;;2.88;1.23;;;18.10;68.80;;;;;;5097016;28;20040;-73
2021/09/14 01:39:29;;;;;;;2.70;1.00;;;18.10;68.70;;;;;;5096601;28;20048;-72
2021/09/14 01:41:55;;;;;;;3.72;1.52;;;18.10;68.50;;;;;;5096681;28;20040;-73
2021/09/14 01:44:20;;;;;;;3.03;1.35;;;18.10;68.60;;;;;;5096451;28;20155;-74
2021/09/14 01:46:48;;;;;;;2.65;1.10;;;18.10;68.50;;;;;;5096512;28;20048;-73
2021/09/14 01:49:13;;;;;;;2.25;1.23;;;18.10;68.70;;;;;;5096302;28;20360;-73
2021/09/14 01:51:40;;;;;;;2.17;1.05;;;18.10;68.60;;;;;;5078290;28;20070;-73
2021/09/14 01:54:06;;;;;;;1.48;0.70;;;18.00;68.60;;;;;;5078090;28;20047;-74
2021/09/14 01:56:32;;;;;;;3.50;1.38;;;18.00;68.70;;;;;;5078011;28;20040;-72
2021/09/14 01:58:58;;;;;;;2.22;1.02;;;18.00;68.70;;;;;;5079088;28;20044;-73
2021/09/14 02:01:36;;;;;;;3.53;1.00;;;18.00;68.60;;;;;;5095932;28;20084;-73
2021/09/14 02:06:52;;;;;;;3.97;0.90;;;18.00;68.60;;;;;;5095876;28;20039;-74
2021/09/14 02:58:46;;;;;;;1.27;0.90;;;17.90;68.70;;;;;;5077297;28;20044;-72
2021/09/14 03:01:14;;;;;;;2.20;1.00;;;18.00;68.90;;;;;;5077590;28;20100;-72
2021/09/14 03:03:43;;;;;;;2.03;1.20;;;18.00;68.90;;;;;;5095077;28;20040;-73
2021/09/14 03:06:10;;;;;;;2.80;0.88;;;18.00;69.20;;;;;;5095362;28;20040;-73
2021/09/14 03:08:38;;;;;;;1.73;1.05;;;17.90;69.10;;;;;;5095335;28;20032;-73
2021/09/14 03:11:12;;;;;;;5.47;1.35;;;18.00;69.30;;;;;;5095059;28;20117;-74
2021/09/14 03:13:39;;;;;;;1.63;0.93;;;18.00;68.60;;;;;;5077743;28;20363;-74
2021/09/14 03:16:05;;;;;;;1.58;0.93;;;18.00;69.20;;;;;;5077805;28;20338;-72
2021/09/14 03:18:31;;;;;;;2.97;1.05;;;18.00;69.20;;;;;;5077536;28;20036;-72
2021/09/14 03:20:57;;;;;;;3.15;1.30;;;18.00;69.10;;;;;;5081777;28;20062;-72
2021/09/14 03:23:23;;;;;;;2.40;1.10;;;18.00;69.20;;;;;;5099378;28;20044;-73
2021/09/14 03:25:49;;;;;;;6.30;1.38;;;18.00;69.40;;;;;;5081506;28;20039;-72
2021/09/14 03:28:16;;;;;;;3.45;1.30;;;18.00;69.30;;;;;;5099312;28;20050;-72
2021/09/14 03:30:43;;;;;;;2.42;1.10;;;18.00;69.30;;;;;;5099050;28;20139;-74
2021/09/14 03:33:09;;;;;;;2.05;1.20;;;18.00;69.40;;;;;;5099670;28;20083;-72
2021/09/14 03:35:36;;;;;;;1.70;0.98;;;18.00;69.30;;;;;;5098924;28;20436;-73
2021/09/14 03:38:01;;;;;;;2.53;1.10;;;18.00;69.40;;;;;;5098882;28;20039;-74
2021/09/14 03:40:27;;;;;;;2.80;0.90;;;18.10;69.50;;;;;;5081250;28;20125;-72
2021/09/14 03:42:53;;;;;;;1.88;1.02;;;18.10;69.40;;;;;;5099039;28;20351;-73
2021/09/14 03:45:19;;;;;;;2.67;1.10;;;18.10;69.40;;;;;;5098355;28;20063;-74
2021/09/14 03:47:44;;;;;;;2.35;1.20;;;18.10;69.40;;;;;;5098567;28;20083;-74
2021/09/14 03:50:11;;;;;;;2.58;1.15;;;18.10;69.40;;;;;;5080754;28;20044;-73
2021/09/14 03:52:36;;;;;;;1.67;0.85;;;18.10;69.50;;;;;;5098770;28;20028;-74
2021/09/14 03:55:03;;;;;;;2.38;1.00;;;18.10;69.50;;;;;;5081227;28;20127;-73
2021/09/14 03:57:29;;;;;;;1.75;0.90;;;18.10;69.60;;;;;;5080971;28;20040;-73
2021/09/14 03:59:55;;;;;;;3.88;1.25;;;18.00;69.50;;;;;;5098432;28;20128;-74
2021/09/14 04:02:41;;;;;;;2.53;1.13;;;18.00;69.40;;;;;;5098340;28;20039;-74
2021/09/14 04:07:53;;;;;;;1.77;0.80;;;18.00;69.70;;;;;;5080327;28;20116;-73
2021/09/14 04:10:19;;;;;;;2.40;1.02;;;18.00;69.80;;;;;;5080914;28;20102;-73
2021/09/14 04:12:45;;;;;;;2.30;0.80;;;18.00;69.80;;;;;;5081277;28;20129;-73
2021/09/14 04:15:11;;;;;;;4.28;1.52;;;18.00;69.90;;;;;;5098240;28;20040;-72
2021/09/14 04:17:37;;;;;;;2.90;1.25;;;18.00;69.90;;;;;;5080520;28;20040;-72
2021/09/14 04:20:04;;;;;;;2.65;1.13;;;18.00;69.70;;;;;;5081066;28;20047;-73
2021/09/14 04:22:29;;;;;;;2.50;0.90;;;18.00;69.90;;;;;;5080349;28;20036;-73
2021/09/14 04:24:55;;;;;;;3.55;1.30;;;18.10;69.90;;;;;;5098409;28;20331;-73
2021/09/14 04:27:21;;;;;;;4.20;0.90;;;18.00;69.90;;;;;;5098030;28;20233;-72
2021/09/14 04:29:47;;;;;;;2.63;0.70;;;18.10;70.00;;;;;;5098764;28;20044;-74
2021/09/14 04:32:13;;;;;;;3.17;1.25;;;18.00;69.90;;;;;;5096567;28;20040;-74
2021/09/14 04:34:38;;;;;;;2.25;1.20;;;18.00;69.90;;;;;;5097515;28;20040;-74
2021/09/14 04:37:04;;;;;;;3.33;1.20;;;18.10;70.10;;;;;;5080616;28;20048;-74
2021/09/14 04:39:30;;;;;;;6.03;1.38;;;18.10;70.10;;;;;;5097719;28;20130;-73
2021/09/14 04:41:56;;;;;;;3.38;1.30;;;18.10;70.10;;;;;;5097523;28;20495;-72
2021/09/14 04:44:21;;;;;;;3.13;1.10;;;18.10;69.90;;;;;;5097444;28;20047;-73
2021/09/14 04:46:47;;;;;;;2.28;1.20;;;18.10;69.90;;;;;;5097759;28;20516;-73
2021/09/14 04:49:13;;;;;;;2.80;1.20;;;18.00;70.00;;;;;;5080585;28;20109;-74
2021/09/14 04:51:39;;;;;;;3.28;1.17;;;18.00;69.90;;;;;;5096082;28;20034;-73
2021/09/14 04:54:04;;;;;;;2.38;1.30;;;18.00;70.10;;;;;;5097200;28;20346;-72
2021/09/14 04:56:30;;;;;;;2.33;1.17;;;18.00;70.00;;;;;;5097894;28;20052;-70
2021/09/14 04:58:56;;;;;;;3.28;1.20;;;18.00;69.80;;;;;;5097450;28;20094;-71
2021/09/14 05:01:22;;;;;;;3.45;1.33;;;18.10;70.00;;;;;;5097641;28;20044;-74
2021/09/14 05:03:48;;;;;;;2.65;1.15;;;18.10;69.90;;;;;;5097189;28;20052;-72
2021/09/14 05:06:14;;;;;;;3.53;1.45;;;18.10;70.00;;;;;;5097073;28;20118;-74
2021/09/14 05:08:40;;;;;;;1.70;1.10;;;18.10;70.00;;;;;;5079419;28;20152;-74
2021/09/14 05:11:07;;;;;;;2.72;1.10;;;18.00;70.00;;;;;;5079237;28;20364;-72
2021/09/14 05:13:33;;;;;;;4.03;1.42;;;18.00;70.00;;;;;;5079585;28;20044;-72
2021/09/14 05:15:59;;;;;;;3.13;2.30;;;18.10;70.30;;;;;;5096536;28;20040;-72
2021/09/14 05:18:25;;;;;;;5.90;2.55;;;18.20;68.70;;;;;;5079371;28;20119;-72
2021/09/14 05:20:52;;;;;;;5.90;2.95;;;18.10;67.70;;;;;;5096412;28;20127;-73
2021/09/14 05:23:30;;;;;;;6.05;2.88;;;18.10;67.50;;;;;;5075299;28;20044;-73
2021/09/14 05:25:57;;;;;;;4.80;2.80;;;18.00;67.50;;;;;;5076600;28;20119;-72
2021/09/14 05:28:22;;;;;;;3.67;2.80;;;17.90;67.50;;;;;;5075807;28;20041;-74
2021/09/14 05:30:48;;;;;;;5.70;3.45;;;17.90;67.20;;;;;;5076667;28;20102;-74
2021/09/14 05:33:14;;;;;;;9.30;3.63;;;17.80;67.50;;;;;;5085290;28;20443;-71
2021/09/14 05:35:51;;;;;;;9.30;3.35;;;17.70;67.60;;;;;;5095939;28;20476;-70
2021/09/14 05:38:19;;;;;;;6.53;3.05;;;17.70;68.10;;;;;;5096771;28;20383;-71
2021/09/14 05:40:45;;;;;;;7.82;2.75;;;17.60;68.10;;;;;;5078593;28;20048;-72
2021/09/14 05:43:11;;;;;;;7.30;3.00;;;17.50;68.70;;;;;;5078308;28;20048;-72
2021/09/14 05:45:37;;;;;;;6.43;2.70;;;17.50;69.00;;;;;;5096678;28;20316;-70
2021/09/14 05:48:03;;;;;;;10.35;2.70;;;17.50;69.10;;;;;;5078193;28;20058;-70
2021/09/14 05:50:29;;;;;;;7.15;2.47;;;17.60;69.40;;;;;;5096131;28;20048;-71
2021/09/14 05:52:55;;;;;;;4.25;1.45;;;17.60;69.50;;;;;;5078051;28;20352;-71
2021/09/14 05:55:21;;;;;;;9.25;1.60;;;17.70;69.70;;;;;;5096087;28;20130;-71
2021/09/14 05:57:46;;;;;;;5.13;1.58;;;17.70;69.80;;;;;;5096476;28;20395;-70
2021/09/14 06:00:13;;;;;;;5.28;1.40;;;17.70;69.80;;;;;;5096093;28;20047;-69
2021/09/14 06:02:38;;;;;;;7.75;2.22;;;17.80;69.90;;;;;;5095873;28;20042;-70
2021/09/14 06:05:05;;;;;;;10.75;1.85;;;17.80;70.10;;;;;;5095955;28;20142;-70
2021/09/14 06:07:31;;;;;;;25.58;2.88;;;17.80;70.20;;;;;;5096048;28;20051;-70
2021/09/14 06:09:56;;;;;;;14.38;2.38;;;17.70;70.50;;;;;;5096269;28;20044;-73
2021/09/14 06:12:23;;;;;;;9.77;2.13;;;17.80;70.80;;;;;;5060740;28;20351;-69
2021/09/14 06:14:48;;;;;;;12.70;2.40;;;17.90;70.60;;;;;;5077493;28;20047;-69
2021/09/14 06:17:14;;;;;;;8.27;2.15;;;17.90;70.30;;;;;;5078032;28;20054;-69
2021/09/14 06:19:40;;;;;;;9.82;1.92;;;17.90;70.20;;;;;;5095769;28;20359;-69
2021/09/14 06:22:06;;;;;;;8.05;1.92;;;17.90;70.10;;;;;;5095732;28;20096;-69
2021/09/14 06:24:32;;;;;;;5.60;1.45;;;17.90;70.10;;;;;;5094737;28;20115;-73
2021/09/14 06:26:58;;;;;;;6.07;1.83;;;17.90;70.20;;;;;;5077565;28;20051;-74
2021/09/14 06:29:24;;;;;;;5.22;2.35;;;18.00;70.30;;;;;;5077907;28;20105;-72
2021/09/14 06:31:49;;;;;;;4.72;1.90;;;18.00;70.00;;;;;;5095579;28;20036;-71
2021/09/14 06:34:15;;;;;;;7.85;2.30;;;18.10;69.90;;;;;;5095292;28;20439;-75
2021/09/14 06:36:41;;;;;;;8.35;2.83;;;18.10;70.50;;;;;;5095243;28;20036;-73
2021/09/14 06:39:06;;;;;;;9.98;3.17;;;18.10;70.40;;;;;;5077778;28;20043;-73
2021/09/14 06:41:32;;;;;;;7.47;2.90;;;18.20;69.80;;;;;;5077092;28;20126;-75
2021/09/14 06:43:58;;;;;;;12.80;3.88;;;18.20;69.80;;;;;;5095113;28;20084;-76
2021/09/14 06:46:24;;;;;;;12.05;4.45;;;18.10;69.60;;;;;;5077564;28;20429;-72
2021/09/14 06:48:52;;;;;;;8.20;3.95;;;18.10;69.70;;;;;;5095601;28;20043;-75
2021/09/14 06:51:18;;;;;;;6.57;4.20;;;18.00;69.80;;;;;;5088676;28;20096;-71
2021/09/14 06:53:44;;;;;;;7.20;4.10;;;18.00;69.80;;;;;;5094147;28;20051;-70
2021/09/14 06:56:10;;;;;;;8.48;3.72;;;17.80;70.00;;;;;;5095117;28;20127;-70
2021/09/14 06:58:36;;;;;;;7.38;3.83;;;17.80;70.40;;;;;;5060387;28;20120;-71
2021/09/14 07:01:02;;;;;;;9.95;5.13;;;17.80;70.80;;;;;;5077433;28;20123;-70
2021/09/14 07:03:28;;;;;;;7.57;4.60;;;17.80;71.00;;;;;;5076665;28;20055;-72
2021/09/14 07:05:55;;;;;;;18.13;4.22;;;17.80;71.20;;;;;;5077282;28;20058;-71
2021/09/14 07:08:21;;;;;;;7.80;3.85;;;17.80;71.40;;;;;;5095190;28;20044;-71
2021/09/14 07:10:47;;;;;;;7.65;3.97;;;17.80;71.50;;;;;;5074443;28;20055;-70
2021/09/14 07:13:14;;;;;;;8.13;4.22;;;17.80;71.60;;;;;;5077582;28;20101;-70
2021/09/14 07:15:41;;;;;;;9.90;4.30;;;17.90;71.70;;;;;;5094734;28;20043;-71
2021/09/14 07:18:07;;;;;;;7.03;3.53;;;17.80;71.80;;;;;;5074164;28;20129;-70
2021/09/14 07:20:33;;;;;;;8.43;3.85;;;17.80;72.00;;;;;;5095374;28;20355;-72
2021/09/14 07:22:59;;;;;;;7.55;3.65;;;17.80;72.00;;;;;;5074146;28;20422;-71
2021/09/14 07:25:26;;;;;;;7.15;3.17;;;17.80;72.10;;;;;;5093292;28;20047;-71
2021/09/14 07:27:52;;;;;;;6.30;3.42;;;17.80;72.50;;;;;;5093330;28;20066;-73
2021/09/14 07:30:17;;;;;;;12.18;4.22;;;17.90;72.70;;;;;;5096323;28;20040;-74
2021/09/14 07:32:43;;;;;;;8.38;3.30;;;17.90;72.70;;;;;;5091826;28;20067;-74
2021/09/14 07:35:10;;;;;;;7.07;3.70;;;17.90;72.90;;;;;;5093615;28;20382;-74
2021/09/14 07:37:36;;;;;;;6.55;3.30;;;17.90;73.20;;;;;;5094333;28;20066;-74
2021/09/14 07:40:03;;;;;;;5.88;3.55;;;17.90;72.90;;;;;;5076480;28;20131;-76
2021/09/14 07:42:29;;;;;;;5.93;3.60;;;17.90;73.10;;;;;;5092817;28;20040;-73
2021/09/14 07:44:55;;;;;;;6.82;3.10;;;18.00;73.20;;;;;;5072533;28;20354;-74
2021/09/14 07:47:21;;;;;;;8.70;3.72;;;18.00;73.30;;;;;;5074355;28;20044;-75
2021/09/14 07:49:46;;;;;;;6.72;4.18;;;18.00;73.30;;;;;;5057003;28;20128;-75
2021/09/14 07:52:13;;;;;;;7.03;4.20;;;18.10;73.40;;;;;;5082962;28;20063;-74
2021/09/14 07:54:39;;;;;;;6.95;3.95;;;18.10;73.40;;;;;;5094690;28;20127;-73
2021/09/14 07:57:04;;;;;;;10.50;4.22;;;18.10;73.50;;;;;;5095093;28;20079;-74
2021/09/14 07:59:31;;;;;;;7.47;3.63;;;18.20;73.90;;;;;;5076691;28;20496;-72
2021/09/14 08:01:57;;;;;;;6.97;3.75;;;18.20;73.90;;;;;;5072952;28;20094;-76
2021/09/14 08:04:23;;;;;;;9.88;3.95;;;18.20;73.80;;;;;;5094108;28;20075;-72
2021/09/14 08:06:49;;;;;;;7.95;3.88;;;18.30;74.10;;;;;;5095930;28;20102;-74
2021/09/14 08:09:15;;;;;;;8.15;3.83;;;18.30;74.00;;;;;;5098352;28;20039;-74
2021/09/14 08:11:41;;;;;;;7.10;4.70;;;18.30;74.10;;;;;;5097789;28;20144;-74
2021/09/14 08:14:07;;;;;;;11.20;4.10;;;18.40;74.30;;;;;;5079625;28;20119;-74
2021/09/14 08:16:32;;;;;;;9.75;3.88;;;18.50;74.50;;;;;;5099388;28;20036;-74
2021/09/14 08:18:58;;;;;;;14.35;5.03;;;18.50;74.60;;;;;;5097694;28;20066;-70
2021/09/14 08:21:24;;;;;;;12.10;4.28;;;18.60;74.40;;;;;;5098169;28;20044;-70
2021/09/14 08:23:50;;;;;;;7.82;3.42;;;18.60;74.40;;;;;;5097572;28;20074;-71
2021/09/14 08:26:16;;;;;;;7.72;2.83;;;18.60;74.20;;;;;;5097597;28;20036;-71
2021/09/14 08:28:42;;;;;;;8.90;2.95;;;18.60;74.20;;;;;;5080032;28;20047;-69
2021/09/14 08:31:08;;;;;;;4.85;2.67;;;18.50;74.10;;;;;;5097721;28;20351;-70
2021/09/14 08:33:33;;;;;;;6.40;2.60;;;18.60;74.30;;;;;;5079653;28;20067;-71
2021/09/14 08:35:59;;;;;;;4.07;2.60;;;18.50;74.20;;;;;;5097742;28;20086;-71
2021/09/14 08:38:25;;;;;;;7.03;2.65;;;18.50;74.10;;;;;;5096913;28;20125;-71
2021/09/14 08:40:51;;;;;;;5.55;2.72;;;18.50;74.20;;;;;;5096902;28;20167;-72
2021/09/14 08:43:17;;;;;;;6.10;2.58;;;18.50;74.10;;;;;;5097061;28;20040;-70
2021/09/14 08:45:43;;;;;;;6.43;2.42;;;18.50;74.10;;;;;;5078937;28;20101;-71
2021/09/14 08:48:09;;;;;;;5.18;2.40;;;18.60;74.20;;;;;;5097473;28;20092;-70
2021/09/14 08:50:36;;;;;;;4.75;2.53;;;18.60;74.20;;;;;;5097507;28;20050;-71
2021/09/14 08:53:04;;;;;;;4.63;2.55;;;18.60;74.20;;;;;;5079300;28;20177;-71
2021/09/14 08:55:30;;;;;;;6.88;2.38;;;18.60;74.20;;;;;;5097363;28;20047;-70
2021/09/14 08:57:56;;;;;;;3.70;2.30;;;18.60;74.20;;;;;;5097134;28;20089;-70
2021/09/14 09:00:36;;;;;;;4.15;2.17;;;18.60;74.10;;;;;;5097029;28;20410;-71
2021/09/14 09:03:03;;;;;;;5.53;2.22;;;18.60;74.00;;;;;;5096848;28;20040;-71
2021/09/14 09:05:33;;;;;;;4.25;2.63;;;18.60;73.90;;;;;;5097061;28;20036;-70
2021/09/14 09:08:01;;;;;;;4.38;2.05;;;18.70;73.90;;;;;;5096843;28;20051;-71
2021/09/14 09:10:30;;;;;;;5.38;2.35;;;18.60;73.90;;;;;;5097037;28;20032;-71
2021/09/14 09:12:57;;;;;;;4.18;2.55;;;18.60;73.80;;;;;;5097148;28;20152;-71
2021/09/14 09:15:36;;;;;;;5.28;2.75;;;18.70;74.50;;;;;;5096590;28;20119;-71
2021/09/14 09:18:13;;;;;;;3.15;1.83;;;18.60;73.80;;;;;;5096319;28;20040;-71
2021/09/14 09:20:41;;;;;;;4.78;1.98;;;18.70;73.80;;;;;;5096414;28;20089;-71
2021/09/14 09:23:11;;;;;;;5.70;2.60;;;18.70;73.80;;;;;;5096632;28;20051;-70
2021/09/14 09:25:38;;;;;;;4.00;2.13;;;18.70;73.70;;;;;;5096315;28;20431;-72
2021/09/14 09:28:10;;;;;;;4.55;2.22;;;18.70;73.80;;;;;;5096754;28;20083;-72
2021/09/14 09:30:41;;;;;;;7.78;2.70;;;18.70;73.70;;;;;;5078471;28;20044;-72
2021/09/14 09:33:08;;;;;;;4.75;2.33;;;18.70;73.70;;;;;;5078996;28;20052;-72
2021/09/14 09:35:37;;;;;;;4.25;2.58;;;18.70;73.50;;;;;;5096716;28;20061;-70
2021/09/14 09:38:04;;;;;;;7.00;3.13;;;18.70;73.50;;;;;;5095989;28;20036;-71
2021/09/14 09:40:33;;;;;;;5.93;3.40;;;18.70;73.50;;;;;;5096544;28;20051;-71
2021/09/14 09:43:07;;;;;;;3.80;2.90;;;18.80;73.60;;;;;;5096388;28;20035;-71
2021/09/14 09:45:39;;;;;;;;;;;18.80;73.50;;;;;;5096450;28;20097;-71
2021/09/14 09:48:05;;;;;;;5.30;2.65;;;18.80;73.60;;;;;;5096561;28;20292;-71
2021/09/14 09:50:31;;;;;;;6.88;4.20;;;18.80;73.50;;;;;;5078493;28;20044;-71
2021/09/14 09:53:00;;;;;;;4.80;2.95;;;18.80;73.50;;;;;;5078128;28;20058;-71
2021/09/14 09:55:28;;;;;;;5.43;2.75;;;18.90;73.40;;;;;;5077959;28;20051;-71
2021/09/14 09:57:54;;;;;;;5.80;3.33;;;18.80;73.40;;;;;;5096230;28;20274;-72
2021/09/14 10:00:20;;;;;;;6.65;3.38;;;18.90;73.40;;;;;;5078474;28;20047;-72
2021/09/14 10:03:01;;;;;;;4.57;2.53;;;18.90;73.50;;;;;;5095981;28;20036;-70
2021/09/14 10:05:31;;;;;;;6.30;3.42;;;18.90;73.40;;;;;;5095964;28;20036;-71
2021/09/14 10:08:04;;;;;;;4.38;2.60;;;18.90;73.40;;;;;;5078840;28;20040;-70
2021/09/14 10:10:35;;;;;;;4.90;3.20;;;18.90;73.40;;;;;;5095533;28;20044;-71
2021/09/14 10:13:05;;;;;;;5.05;3.35;;;18.90;73.30;;;;;;5095437;28;20082;-72
2021/09/14 10:15:42;;;;;;;6.10;3.50;;;18.90;73.30;;;;;;5095852;28;20132;-71
2021/09/14 10:18:09;;;;;;;5.95;3.63;;;19.00;73.30;;;;;;5095774;28;20319;-71
2021/09/14 10:20:43;;;;;;;5.32;2.90;;;19.00;73.30;;;;;;5095567;28;20044;-72
2021/09/14 10:23:21;;;;;;;5.97;3.08;;;19.00;73.30;;;;;;5095871;28;20051;-72
2021/09/14 10:25:51;;;;;;;5.57;3.65;;;19.00;73.80;;;;;;5095278;28;20040;-71
2021/09/14 10:28:19;;;;;;;6.60;3.45;;;19.00;73.20;;;;;;5077553;28;20082;-71
2021/09/14 10:30:46;;;;;;;4.38;2.95;;;19.00;73.10;;;;;;5095245;28;20120;-71
2021/09/14 10:33:38;;;;;;;9.35;5.25;;;19.00;73.10;;;;;;5089743;28;20044;-74
2021/09/14 10:36:13;;;;;;;7.25;4.05;;;19.20;72.90;;;;;;5053932;28;20156;-71
2021/09/14 10:38:48;;;;;;;7.20;4.30;;;19.20;72.30;;;;;;5074935;28;20048;-70
2021/09/14 10:41:15;;;;;;;6.75;3.40;;;19.20;72.50;;;;;;5075307;28;20044;-71
2021/09/14 10:43:53;;;;;;;5.03;3.58;;;19.20;72.70;;;;;;5094663;28;20051;-72
2021/09/14 10:46:26;;;;;;;4.57;3.30;;;19.20;72.80;;;;;;5095251;28;20052;-71
2021/09/14 10:48:52;;;;;;;7.40;3.72;;;19.20;72.80;;;;;;5077955;28;20055;-70
2021/09/14 10:51:19;;;;;;;6.75;3.33;;;19.20;72.80;;;;;;5094668;28;20366;-70
2021/09/14 10:53:58;;;;;;;5.97;3.10;;;19.20;72.80;;;;;;5092363;28;20044;-71
2021/09/14 10:56:26;;;;;;;10.20;5.13;;;19.20;72.50;;;;;;5095872;28;20105;-71
2021/09/14 10:58:52;;;;;;;7.18;4.40;;;19.30;72.50;;;;;;5093187;28;20401;-71
2021/09/14 11:01:23;;;;;;;13.32;4.95;;;19.20;72.50;;;;;;5094210;28;20040;-72
2021/09/14 11:04:05;;;;;;;8.13;4.57;;;19.20;72.80;;;;;;5074934;28;20045;-72
2021/09/14 11:06:31;;;;;;;9.38;4.50;;;19.20;72.80;;;;;;5074415;28;20040;-71
2021/09/14 11:09:03;;;;;;;6.82;4.30;;;19.30;72.90;;;;;;5074840;28;20045;-72
2021/09/14 11:11:28;;;;;;;7.10;4.30;;;19.20;72.90;;;;;;5074895;28;20102;-71
2021/09/14 11:13:55;;;;;;;6.20;3.95;;;19.20;73.00;;;;;;5077272;28;20101;-70
2021/09/14 11:16:21;;;;;;;5.88;3.92;;;19.30;73.10;;;;;;5074557;28;20508;-72
2021/09/14 11:18:47;;;;;;;5.70;4.72;;;19.30;73.20;;;;;;5076719;28;20044;-73
2021/09/14 11:21:15;;;;;;;6.22;4.22;;;19.30;73.10;;;;;;5077491;28;20122;-72
2021/09/14 11:23:48;;;;;;;10.55;4.85;;;19.30;73.10;;;;;;5073833;28;20032;-71
2021/09/14 11:26:16;;;;;;;7.43;4.38;;;19.20;73.70;;;;;;5057255;28;20454;-73
2021/09/14 11:28:57;;;;;;;6.50;3.95;;;19.30;73.80;;;;;;5057293;28;20060;-73
2021/09/14 11:31:25;;;;;;;4.82;4.22;;;19.30;73.10;;;;;;5074786;28;20102;-73
2021/09/14 11:33:51;;;;;;;5.45;4.00;;;19.30;73.20;;;;;;5075273;28;20119;-72
2021/09/14 11:36:18;;;;;;;6.05;3.80;;;19.30;73.20;;;;;;5091261;28;20135;-73
2021/09/14 11:38:43;;;;;;;8.90;4.57;;;19.30;73.10;;;;;;5094830;28;20043;-72
2021/09/14 11:41:11;;;;;;;9.77;5.13;;;19.40;73.00;;;;;;5079197;28;20342;-72
2021/09/14 11:43:41;;;;;;;13.13;5.47;;;19.30;73.00;;;;;;5098735;28;20048;-72
2021/09/14 11:46:18;;;;;;;8.10;4.70;;;19.40;73.30;;;;;;5098525;28;20063;-72
2021/09/14 11:49:01;;;;;;;11.45;5.13;;;19.40;73.30;;;;;;5096278;28;20085;-71
2021/09/14 11:51:28;;;;;;;9.85;5.25;;;19.50;73.30;;;;;;5098958;28;20040;-72
2021/09/14 11:53:54;;;;;;;14.00;4.32;;;19.40;73.10;;;;;;5098266;28;20062;-72
2021/09/14 11:56:25;;;;;;;6.22;4.43;;;19.40;73.20;;;;;;5098187;28;20461;-72
2021/09/14 11:58:50;;;;;;;7.32;4.28;;;19.50;73.20;;;;;;5080925;28;20435;-72
2021/09/14 12:01:18;;;;;;;15.10;5.40;;;19.40;73.20;;;;;;5080510;28;20044;-71
2021/09/14 12:03:52;;;;;;;6.80;4.03;;;19.50;73.30;;;;;;5097894;28;20144;-71
2021/09/14 12:06:33;;;;;;;10.07;4.50;;;19.50;73.30;;;;;;5098460;28;20089;-73
2021/09/14 12:09:02;;;;;;;7.70;4.07;;;19.40;73.20;;;;;;5095048;28;20047;-72
2021/09/14 12:11:30;;;;;;;6.85;4.07;;;19.50;73.30;;;;;;5119045;28;20043;-72
2021/09/14 12:14:01;;;;;;;6.80;4.25;;;19.40;73.30;;;;;;5103824;28;20067;-73
2021/09/14 12:16:28;;;;;;;4.72;3.40;;;19.50;73.30;;;;;;5098159;28;20044;-73
2021/09/14 12:18:55;;;;;;;6.00;3.25;;;19.40;73.20;;;;;;5098435;28;20392;-72
2021/09/14 12:21:22;;;;;;;7.97;3.65;;;19.40;73.30;;;;;;5079397;28;20097;-71
2021/09/14 12:23:48;;;;;;;5.38;3.30;;;19.40;73.20;;;;;;5080437;28;20526;-72
2021/09/14 12:26:29;;;;;;;3.42;3.13;;;19.40;73.20;;;;;;5098634;28;20323;-73
2021/09/14 12:28:57;;;;;;;7.38;3.70;;;19.50;73.20;;;;;;5079641;28;20044;-72
2021/09/14 12:31:24;;;;;;;9.32;3.90;;;19.50;73.20;;;;;;5098005;28;20128;-70
2021/09/14 12:33:50;;;;;;;13.38;4.35;;;19.50;73.20;;;;;;5097807;28;20146;-72
2021/09/14 12:36:17;;;;;;;7.85;4.03;;;19.50;73.20;;;;;;5079890;28;20039;-72
2021/09/14 12:38:42;;;;;;;7.82;4.20;;;19.50;73.30;;;;;;5088730;28;20047;-71
2021/09/14 12:41:09;;;;;;;13.43;4.32;;;19.50;73.30;;;;;;5097345;28;20043;-72
2021/09/14 12:43:36;;;;;;;6.38;4.10;;;19.50;73.30;;;;;;5097444;28;20071;-72
2021/09/14 12:46:03;;;;;;;8.38;4.47;;;19.50;73.40;;;;;;5097080;28;20048;-72
2021/09/14 12:48:29;;;;;;;5.65;4.05;;;19.50;73.40;;;;;;5097299;28;20036;-71
2021/09/14 12:50:55;;;;;;;9.05;4.00;;;19.50;73.40;;;;;;5097427;28;20047;-71
2021/09/14 12:53:21;;;;;;;7.35;4.20;;;19.50;73.40;;;;;;5096283;28;20385;-73
2021/09/14 12:55:47;;;;;;;6.88;4.35;;;19.50;73.50;;;;;;5097372;28;20050;-72
2021/09/14 12:58:13;;;;;;;8.13;4.68;;;19.50;73.50;;;;;;5097475;28;20080;-71
2021/09/14 13:00:39;;;;;;;7.63;4.68;;;19.50;73.60;;;;;;5072386;28;20494;-71
2021/09/14 13:03:05;;;;;;;6.45;3.95;;;19.50;73.60;;;;;;5084407;28;20040;-71
2021/09/14 13:05:32;;;;;;;9.07;4.80;;;19.60;73.80;;;;;;5059088;28;20436;-72
2021/09/14 13:07:58;;;;;;;11.00;5.72;;;19.60;73.90;;;;;;5059037;28;20037;-77
2021/09/14 13:10:25;;;;;;;8.52;5.70;;;19.60;73.80;;;;;;5049151;28;20055;-72
2021/09/14 13:16:10;;;;;;;8.73;5.63;;;19.70;73.80;;;;;;5098289;28;20055;-75
2021/09/14 13:18:24;;;;;;;8.40;5.00;;;19.70;74.00;;;;;;5079133;28;20044;-70
2021/09/14 13:20:50;;;;;;;7.43;4.75;;;19.80;74.20;;;;;;5096929;28;20311;-75
2021/09/14 13:23:16;;;;;;;7.95;5.40;;;19.80;74.10;;;;;;5079102;28;20365;-72
2021/09/14 13:25:43;;;;;;;14.48;4.97;;;19.80;74.30;;;;;;5097436;28;20046;-73
2021/09/14 13:28:09;;;;;;;10.95;5.00;;;19.70;74.40;;;;;;5096880;28;20044;-77
2021/09/14 13:30:34;;;;;;;11.70;5.43;;;19.80;74.50;;;;;;5096545;28;20052;-70
2021/09/14 13:33:00;;;;;;;11.32;5.22;;;19.80;74.40;;;;;;5096395;28;20127;-72
2021/09/14 13:35:26;;;;;;;7.03;5.78;;;19.80;74.30;;;;;;5096553;28;20055;-72
2021/09/14 13:37:53;;;;;;;8.90;4.97;;;19.90;74.00;;;;;;5078472;28;20097;-72
2021/09/14 13:40:19;;;;;;;7.47;4.80;;;19.90;74.60;;;;;;5096673;28;20051;-73
2021/09/14 13:42:52;;;;;;;8.20;4.80;;;19.90;74.00;;;;;;5078198;28;20044;-72
2021/09/14 13:48:03;;;;;;;9.45;4.93;;;19.90;73.90;;;;;;5095698;28;20040;-72
2021/09/14 13:50:31;;;;;;;10.88;5.38;;;19.90;73.90;;;;;;5078482;28;20168;-70